sensor_id;sensor_type;location;lat;lon;timestamp;temperature;humidity
38938;DHT22;24727;51.974;20.868;2023-04-06T00:02:19;2.70;1.00
38938;DHT22;24727;51.974;20.868;2023-04-06T00:04:46;2.80;1.00
38938;DHT22;24727;51.974;20.868;2023-04-06T00:07:12;2.60;1.00
38938;DHT22;24727;51.974;20.868;2023-04-06T00:09:38;2.80;1.00
38938;DHT22;24727;51.974;20.868;2023-04-06T00:12:04;2.70;1.00
38938;DHT22;24727;51.974;20.868;2023-04-06T00:14:31;2.70;1.00
38938;DHT22;24727;51.974;20.868;2023-04-06T00:16:58;2.80;1.00
38938;DHT22;24727;51.974;20.868;2023-04-06T00:19:24;2.70;1.00
38938;DHT22;24727;51.974;20.868;2023-04-06T00:21:50;2.70;1.00
38938;DHT22;24727;51.974;20.868;2023-04-06T00:24:16;2.70;1.00
38938;DHT22;24727;51.974;20.868;2023-04-06T00:26:42;2.70;1.00
38938;DHT22;24727;51.974;20.868;2023-04-06T00:29:08;2.80;1.00
38938;DHT22;24727;51.974;20.868;2023-04-06T00:31:36;2.60;1.00
38938;DHT22;24727;51.974;20.868;2023-04-06T00:34:02;2.60;1.00
38938;DHT22;24727;51.974;20.868;2023-04-06T00:36:29;2.60;1.00
38938;DHT22;24727;51.974;20.868;2023-04-06T00:38:56;2.60;1.00
38938;DHT22;24727;51.974;20.868;2023-04-06T00:41:22;2.60;1.00
38938;DHT22;24727;51.974;20.868;2023-04-06T00:43:49;2.70;1.00
38938;DHT22;24727;51.974;20.868;2023-04-06T00:46:15;2.60;1.00
38938;DHT22;24727;51.974;20.868;2023-04-06T00:48:40;2.60;1.00
38938;DHT22;24727;51.974;20.868;2023-04-06T00:51:07;2.60;1.00
38938;DHT22;24727;51.974;20.868;2023-04-06T00:53:34;2.60;1.00
38938;DHT22;24727;51.974;20.868;2023-04-06T00:56:00;2.50;1.00
38938;DHT22;24727;51.974;20.868;2023-04-06T00:58:26;2.50;1.00
38938;DHT22;24727;51.974;20.868;2023-04-06T01:00:52;2.70;1.00
38938;DHT22;24727;51.974;20.868;2023-04-06T01:03:18;2.60;1.00
38938;DHT22;24727;51.974;20.868;2023-04-06T01:05:44;2.50;1.00
38938;DHT22;24727;51.974;20.868;2023-04-06T01:08:10;2.50;1.00
38938;DHT22;24727;51.974;20.868;2023-04-06T01:10:36;2.60;1.00
38938;DHT22;24727;51.974;20.868;2023-04-06T01:13:03;2.60;1.00
38938;DHT22;24727;51.974;20.868;2023-04-06T01:15:30;2.60;1.00
38938;DHT22;24727;51.974;20.868;2023-04-06T01:17:56;2.60;1.00
38938;DHT22;24727;51.974;20.868;2023-04-06T01:20:22;2.60;1.00
38938;DHT22;24727;51.974;20.868;2023-04-06T01:22:49;2.60;1.00
38938;DHT22;24727;51.974;20.868;2023-04-06T01:25:15;2.70;1.00
38938;DHT22;24727;51.974;20.868;2023-04-06T01:27:41;2.60;1.00
38938;DHT22;24727;51.974;20.868;2023-04-06T01:30:16;2.60;1.00
38938;DHT22;24727;51.974;20.868;2023-04-06T01:32:43;2.50;1.00
38938;DHT22;24727;51.974;20.868;2023-04-06T01:35:10;2.30;1.00
38938;DHT22;24727;51.974;20.868;2023-04-06T01:37:37;2.40;1.00
38938;DHT22;24727;51.974;20.868;2023-04-06T01:40:03;2.40;1.00
38938;DHT22;24727;51.974;20.868;2023-04-06T01:42:30;2.50;1.00
38938;DHT22;24727;51.974;20.868;2023-04-06T01:44:56;2.40;1.00
38938;DHT22;24727;51.974;20.868;2023-04-06T01:47:22;2.40;1.00
38938;DHT22;24727;51.974;20.868;2023-04-06T01:49:48;2.40;1.00
38938;DHT22;24727;51.974;20.868;2023-04-06T01:52:14;2.30;1.00
38938;DHT22;24727;51.974;20.868;2023-04-06T01:54:47;2.20;1.00
38938;DHT22;24727;51.974;20.868;2023-04-06T01:57:20;2.20;1.00
38938;DHT22;24727;51.974;20.868;2023-04-06T01:59:46;2.20;1.00
38938;DHT22;24727;51.974;20.868;2023-04-06T02:02:12;2.30;1.00
38938;DHT22;24727;51.974;20.868;2023-04-06T02:04:39;2.30;1.00
38938;DHT22;24727;51.974;20.868;2023-04-06T02:07:06;2.30;1.00
38938;DHT22;24727;51.974;20.868;2023-04-06T02:09:35;2.20;1.00
38938;DHT22;24727;51.974;20.868;2023-04-06T02:12:01;2.10;1.00
38938;DHT22;24727;51.974;20.868;2023-04-06T02:14:28;2.00;1.00
38938;DHT22;24727;51.974;20.868;2023-04-06T02:16:55;2.10;1.00
38938;DHT22;24727;51.974;20.868;2023-04-06T02:19:21;2.30;1.00
38938;DHT22;24727;51.974;20.868;2023-04-06T02:21:47;2.30;1.00
38938;DHT22;24727;51.974;20.868;2023-04-06T02:24:13;2.40;1.00
38938;DHT22;24727;51.974;20.868;2023-04-06T02:26:41;2.30;1.00
38938;DHT22;24727;51.974;20.868;2023-04-06T02:29:07;2.30;1.00
38938;DHT22;24727;51.974;20.868;2023-04-06T02:31:33;2.20;1.00
38938;DHT22;24727;51.974;20.868;2023-04-06T02:34:01;2.20;1.00
38938;DHT22;24727;51.974;20.868;2023-04-06T02:36:27;1.90;1.00
38938;DHT22;24727;51.974;20.868;2023-04-06T02:38:53;2.00;1.00
38938;DHT22;24727;51.974;20.868;2023-04-06T02:41:19;1.80;1.00
38938;DHT22;24727;51.974;20.868;2023-04-06T02:43:46;1.50;1.00
38938;DHT22;24727;51.974;20.868;2023-04-06T02:46:13;1.40;1.00
38938;DHT22;24727;51.974;20.868;2023-04-06T02:48:39;1.50;1.00
38938;DHT22;24727;51.974;20.868;2023-04-06T02:51:05;1.30;1.00
38938;DHT22;24727;51.974;20.868;2023-04-06T02:53:32;1.50;1.00
38938;DHT22;24727;51.974;20.868;2023-04-06T02:55:59;1.50;1.00
38938;DHT22;24727;51.974;20.868;2023-04-06T02:58:24;1.40;1.00
38938;DHT22;24727;51.974;20.868;2023-04-06T03:00:51;1.30;1.00
38938;DHT22;24727;51.974;20.868;2023-04-06T03:03:17;1.40;1.00
38938;DHT22;24727;51.974;20.868;2023-04-06T03:05:43;1.40;1.00
38938;DHT22;24727;51.974;20.868;2023-04-06T03:08:09;1.20;1.00
38938;DHT22;24727;51.974;20.868;2023-04-06T03:10:36;1.10;1.00
38938;DHT22;24727;51.974;20.868;2023-04-06T03:13:01;1.00;1.00
38938;DHT22;24727;51.974;20.868;2023-04-06T03:15:27;1.00;1.00
38938;DHT22;24727;51.974;20.868;2023-04-06T03:17:53;1.00;1.00
38938;DHT22;24727;51.974;20.868;2023-04-06T03:20:20;0.90;1.00
38938;DHT22;24727;51.974;20.868;2023-04-06T03:22:47;0.90;1.00
38938;DHT22;24727;51.974;20.868;2023-04-06T03:25:13;0.90;1.00
38938;DHT22;24727;51.974;20.868;2023-04-06T03:27:39;0.90;1.00
38938;DHT22;24727;51.974;20.868;2023-04-06T03:30:06;0.90;1.00
38938;DHT22;24727;51.974;20.868;2023-04-06T03:32:32;0.80;1.00
38938;DHT22;24727;51.974;20.868;2023-04-06T03:34:59;0.90;1.00
38938;DHT22;24727;51.974;20.868;2023-04-06T03:37:26;0.80;1.00
38938;DHT22;24727;51.974;20.868;2023-04-06T03:39:52;0.80;1.00
38938;DHT22;24727;51.974;20.868;2023-04-06T03:42:19;0.80;1.00
38938;DHT22;24727;51.974;20.868;2023-04-06T03:44:45;0.80;1.00
38938;DHT22;24727;51.974;20.868;2023-04-06T03:47:12;0.70;1.00
38938;DHT22;24727;51.974;20.868;2023-04-06T03:49:38;0.70;1.00
38938;DHT22;24727;51.974;20.868;2023-04-06T03:52:04;0.60;1.00
38938;DHT22;24727;51.974;20.868;2023-04-06T03:54:30;0.60;1.00
38938;DHT22;24727;51.974;20.868;2023-04-06T03:56:56;0.60;1.00
38938;DHT22;24727;51.974;20.868;2023-04-06T03:59:23;0.60;1.00
38938;DHT22;24727;51.974;20.868;2023-04-06T04:01:49;0.60;1.00
38938;DHT22;24727;51.974;20.868;2023-04-06T04:04:17;0.70;1.00
38938;DHT22;24727;51.974;20.868;2023-04-06T04:06:42;0.60;1.00
38938;DHT22;24727;51.974;20.868;2023-04-06T04:09:09;0.60;1.00
38938;DHT22;24727;51.974;20.868;2023-04-06T04:11:35;0.60;1.00
38938;DHT22;24727;51.974;20.868;2023-04-06T04:14:02;0.60;1.00
38938;DHT22;24727;51.974;20.868;2023-04-06T04:16:29;0.60;1.00
38938;DHT22;24727;51.974;20.868;2023-04-06T04:18:55;0.60;1.00
38938;DHT22;24727;51.974;20.868;2023-04-06T04:21:22;0.50;1.00
38938;DHT22;24727;51.974;20.868;2023-04-06T04:23:50;0.60;1.00
38938;DHT22;24727;51.974;20.868;2023-04-06T04:26:16;0.50;1.00
38938;DHT22;24727;51.974;20.868;2023-04-06T04:28:42;0.50;1.00
38938;DHT22;24727;51.974;20.868;2023-04-06T04:31:08;0.50;1.00
38938;DHT22;24727;51.974;20.868;2023-04-06T04:33:35;0.50;1.00
38938;DHT22;24727;51.974;20.868;2023-04-06T04:36:01;0.50;1.00
38938;DHT22;24727;51.974;20.868;2023-04-06T04:38:28;0.50;1.00
38938;DHT22;24727;51.974;20.868;2023-04-06T04:40:57;0.50;1.00
38938;DHT22;24727;51.974;20.868;2023-04-06T04:43:25;0.50;1.00
38938;DHT22;24727;51.974;20.868;2023-04-06T04:45:50;0.50;1.00
38938;DHT22;24727;51.974;20.868;2023-04-06T04:48:19;0.50;1.00
38938;DHT22;24727;51.974;20.868;2023-04-06T04:50:46;0.50;1.00
38938;DHT22;24727;51.974;20.868;2023-04-06T04:53:12;0.60;1.00
38938;DHT22;24727;51.974;20.868;2023-04-06T04:55:38;0.60;1.00
38938;DHT22;24727;51.974;20.868;2023-04-06T04:58:06;0.60;1.00
38938;DHT22;24727;51.974;20.868;2023-04-06T05:00:32;0.60;1.00
38938;DHT22;24727;51.974;20.868;2023-04-06T05:02:58;0.60;1.00
38938;DHT22;24727;51.974;20.868;2023-04-06T05:05:24;0.70;1.00
38938;DHT22;24727;51.974;20.868;2023-04-06T05:07:50;0.70;1.00
38938;DHT22;24727;51.974;20.868;2023-04-06T05:10:17;0.70;1.00
38938;DHT22;24727;51.974;20.868;2023-04-06T05:12:43;0.70;1.00
38938;DHT22;24727;51.974;20.868;2023-04-06T05:15:10;0.80;1.00
38938;DHT22;24727;51.974;20.868;2023-04-06T05:17:36;0.80;1.00
38938;DHT22;24727;51.974;20.868;2023-04-06T05:20:03;0.90;1.00
38938;DHT22;24727;51.974;20.868;2023-04-06T05:22:29;0.90;1.00
38938;DHT22;24727;51.974;20.868;2023-04-06T05:24:56;0.90;1.00
38938;DHT22;24727;51.974;20.868;2023-04-06T05:27:22;0.90;1.00
38938;DHT22;24727;51.974;20.868;2023-04-06T05:29:49;1.00;1.00
38938;DHT22;24727;51.974;20.868;2023-04-06T05:32:15;1.00;1.00
38938;DHT22;24727;51.974;20.868;2023-04-06T05:34:43;1.00;1.00
38938;DHT22;24727;51.974;20.868;2023-04-06T05:37:10;1.00;1.00
38938;DHT22;24727;51.974;20.868;2023-04-06T05:39:37;1.00;1.00
38938;DHT22;24727;51.974;20.868;2023-04-06T05:42:06;1.10;1.00
38938;DHT22;24727;51.974;20.868;2023-04-06T05:44:32;1.10;1.00
38938;DHT22;24727;51.974;20.868;2023-04-06T05:46:59;1.20;1.00
38938;DHT22;24727;51.974;20.868;2023-04-06T05:49:26;1.30;1.00
38938;DHT22;24727;51.974;20.868;2023-04-06T05:51:54;1.30;1.00
38938;DHT22;24727;51.974;20.868;2023-04-06T05:54:20;1.40;1.00
38938;DHT22;24727;51.974;20.868;2023-04-06T05:56:46;1.40;1.00
38938;DHT22;24727;51.974;20.868;2023-04-06T05:59:13;1.40;1.00
38938;DHT22;24727;51.974;20.868;2023-04-06T06:01:39;1.60;1.00
38938;DHT22;24727;51.974;20.868;2023-04-06T06:04:05;1.50;1.00
38938;DHT22;24727;51.974;20.868;2023-04-06T06:06:32;2.00;1.00
38938;DHT22;24727;51.974;20.868;2023-04-06T06:08:58;2.00;1.00
38938;DHT22;24727;51.974;20.868;2023-04-06T06:11:29;2.20;1.00
38938;DHT22;24727;51.974;20.868;2023-04-06T06:13:56;2.20;1.00
38938;DHT22;24727;51.974;20.868;2023-04-06T06:16:24;2.30;1.00
38938;DHT22;24727;51.974;20.868;2023-04-06T06:18:51;2.30;1.00
38938;DHT22;24727;51.974;20.868;2023-04-06T06:21:18;2.50;1.00
38938;DHT22;24727;51.974;20.868;2023-04-06T06:23:45;2.70;1.00
38938;DHT22;24727;51.974;20.868;2023-04-06T06:26:13;2.60;1.00
38938;DHT22;24727;51.974;20.868;2023-04-06T06:28:39;2.90;1.00
38938;DHT22;24727;51.974;20.868;2023-04-06T06:31:06;2.50;1.00
38938;DHT22;24727;51.974;20.868;2023-04-06T06:33:33;2.30;1.00
38938;DHT22;24727;51.974;20.868;2023-04-06T06:36:00;2.50;1.00
38938;DHT22;24727;51.974;20.868;2023-04-06T06:38:26;2.30;1.00
38938;DHT22;24727;51.974;20.868;2023-04-06T06:40:53;2.50;1.00
38938;DHT22;24727;51.974;20.868;2023-04-06T06:43:19;2.80;1.00
38938;DHT22;24727;51.974;20.868;2023-04-06T06:45:46;2.90;1.00
38938;DHT22;24727;51.974;20.868;2023-04-06T06:48:12;2.60;1.00
38938;DHT22;24727;51.974;20.868;2023-04-06T06:50:39;2.60;1.00
38938;DHT22;24727;51.974;20.868;2023-04-06T06:53:05;2.40;1.00
38938;DHT22;24727;51.974;20.868;2023-04-06T06:55:31;2.50;1.00
38938;DHT22;24727;51.974;20.868;2023-04-06T06:57:58;2.60;1.00
38938;DHT22;24727;51.974;20.868;2023-04-06T07:00:24;2.60;1.00
38938;DHT22;24727;51.974;20.868;2023-04-06T07:02:51;2.80;1.00
38938;DHT22;24727;51.974;20.868;2023-04-06T07:05:19;3.00;1.00
38938;DHT22;24727;51.974;20.868;2023-04-06T07:07:47;3.30;1.00
38938;DHT22;24727;51.974;20.868;2023-04-06T07:10:15;3.50;1.00
38938;DHT22;24727;51.974;20.868;2023-04-06T07:12:42;3.20;1.00
38938;DHT22;24727;51.974;20.868;2023-04-06T07:15:10;3.10;1.00
38938;DHT22;24727;51.974;20.868;2023-04-06T07:17:37;3.30;1.00
38938;DHT22;24727;51.974;20.868;2023-04-06T07:20:04;3.50;1.00
38938;DHT22;24727;51.974;20.868;2023-04-06T07:22:30;3.30;1.00
38938;DHT22;24727;51.974;20.868;2023-04-06T07:24:57;3.40;1.00
38938;DHT22;24727;51.974;20.868;2023-04-06T07:27:23;3.50;1.00
38938;DHT22;24727;51.974;20.868;2023-04-06T07:29:50;3.60;1.00
38938;DHT22;24727;51.974;20.868;2023-04-06T07:32:16;3.70;1.00
38938;DHT22;24727;51.974;20.868;2023-04-06T07:34:43;3.50;1.00
38938;DHT22;24727;51.974;20.868;2023-04-06T07:37:11;3.10;1.00
38938;DHT22;24727;51.974;20.868;2023-04-06T07:39:38;3.10;1.00
38938;DHT22;24727;51.974;20.868;2023-04-06T07:42:04;3.40;1.00
38938;DHT22;24727;51.974;20.868;2023-04-06T07:44:31;3.50;1.00
38938;DHT22;24727;51.974;20.868;2023-04-06T07:46:57;3.50;1.00
38938;DHT22;24727;51.974;20.868;2023-04-06T07:49:24;3.30;1.00
38938;DHT22;24727;51.974;20.868;2023-04-06T07:51:50;3.50;1.00
38938;DHT22;24727;51.974;20.868;2023-04-06T07:54:17;3.40;1.00
38938;DHT22;24727;51.974;20.868;2023-04-06T07:56:43;3.40;1.00
38938;DHT22;24727;51.974;20.868;2023-04-06T07:59:09;3.40;1.00
38938;DHT22;24727;51.974;20.868;2023-04-06T08:01:37;3.30;1.00
38938;DHT22;24727;51.974;20.868;2023-04-06T08:04:03;3.30;1.00
38938;DHT22;24727;51.974;20.868;2023-04-06T08:06:31;3.60;1.00
38938;DHT22;24727;51.974;20.868;2023-04-06T08:08:57;3.90;1.00
38938;DHT22;24727;51.974;20.868;2023-04-06T08:11:24;3.60;1.00
38938;DHT22;24727;51.974;20.868;2023-04-06T08:13:52;3.60;1.00
38938;DHT22;24727;51.974;20.868;2023-04-06T08:16:19;3.70;1.00
38938;DHT22;24727;51.974;20.868;2023-04-06T08:18:45;3.40;1.00
38938;DHT22;24727;51.974;20.868;2023-04-06T08:21:11;3.80;1.00
38938;DHT22;24727;51.974;20.868;2023-04-06T08:23:37;3.90;1.00
38938;DHT22;24727;51.974;20.868;2023-04-06T08:26:04;4.00;1.00
38938;DHT22;24727;51.974;20.868;2023-04-06T08:28:32;3.60;1.00
38938;DHT22;24727;51.974;20.868;2023-04-06T08:31:04;3.40;1.00
38938;DHT22;24727;51.974;20.868;2023-04-06T08:33:31;3.60;1.00
38938;DHT22;24727;51.974;20.868;2023-04-06T08:36:07;3.60;1.00
38938;DHT22;24727;51.974;20.868;2023-04-06T08:38:33;4.00;1.00
38938;DHT22;24727;51.974;20.868;2023-04-06T08:41:00;3.70;1.00
38938;DHT22;24727;51.974;20.868;2023-04-06T08:43:27;3.40;1.00
38938;DHT22;24727;51.974;20.868;2023-04-06T08:45:54;3.30;1.00
38938;DHT22;24727;51.974;20.868;2023-04-06T08:48:22;3.00;1.00
38938;DHT22;24727;51.974;20.868;2023-04-06T08:50:50;2.90;1.00
38938;DHT22;24727;51.974;20.868;2023-04-06T08:53:16;3.20;1.00
38938;DHT22;24727;51.974;20.868;2023-04-06T08:55:45;3.10;1.00
38938;DHT22;24727;51.974;20.868;2023-04-06T08:58:12;3.10;1.00
38938;DHT22;24727;51.974;20.868;2023-04-06T09:00:39;3.20;1.00
38938;DHT22;24727;51.974;20.868;2023-04-06T09:03:06;3.60;1.00
38938;DHT22;24727;51.974;20.868;2023-04-06T09:05:34;3.90;1.00
38938;DHT22;24727;51.974;20.868;2023-04-06T09:08:06;4.00;1.00
38938;DHT22;24727;51.974;20.868;2023-04-06T09:10:32;4.40;1.00
38938;DHT22;24727;51.974;20.868;2023-04-06T09:13:08;4.20;1.00
38938;DHT22;24727;51.974;20.868;2023-04-06T09:15:35;3.40;1.00
38938;DHT22;24727;51.974;20.868;2023-04-06T09:18:01;3.30;1.00
38938;DHT22;24727;51.974;20.868;2023-04-06T09:20:28;3.20;1.00
38938;DHT22;24727;51.974;20.868;2023-04-06T09:22:55;3.20;1.00
38938;DHT22;24727;51.974;20.868;2023-04-06T09:25:24;3.10;1.00
38938;DHT22;24727;51.974;20.868;2023-04-06T09:28:00;3.00;1.00
38938;DHT22;24727;51.974;20.868;2023-04-06T09:30:27;2.90;1.00
38938;DHT22;24727;51.974;20.868;2023-04-06T09:32:55;3.00;1.00
38938;DHT22;24727;51.974;20.868;2023-04-06T09:35:23;3.30;1.00
38938;DHT22;24727;51.974;20.868;2023-04-06T09:37:52;3.70;1.00
38938;DHT22;24727;51.974;20.868;2023-04-06T09:40:19;3.70;1.00
38938;DHT22;24727;51.974;20.868;2023-04-06T09:42:48;4.00;1.00
38938;DHT22;24727;51.974;20.868;2023-04-06T09:45:19;3.40;1.00
38938;DHT22;24727;51.974;20.868;2023-04-06T09:47:49;3.60;1.00
38938;DHT22;24727;51.974;20.868;2023-04-06T09:50:19;3.50;1.00
38938;DHT22;24727;51.974;20.868;2023-04-06T09:52:50;3.50;1.00
38938;DHT22;24727;51.974;20.868;2023-04-06T09:55:28;3.20;1.00
38938;DHT22;24727;51.974;20.868;2023-04-06T09:58:05;2.70;1.00
38938;DHT22;24727;51.974;20.868;2023-04-06T10:00:34;3.00;1.00
38938;DHT22;24727;51.974;20.868;2023-04-06T10:05:50;3.40;1.00
38938;DHT22;24727;51.974;20.868;2023-04-06T10:08:24;2.60;1.00
38938;DHT22;24727;51.974;20.868;2023-04-06T10:10:55;2.50;1.00
38938;DHT22;24727;51.974;20.868;2023-04-06T10:13:24;2.30;1.00
38938;DHT22;24727;51.974;20.868;2023-04-06T10:15:51;2.40;1.00
38938;DHT22;24727;51.974;20.868;2023-04-06T10:18:18;2.20;1.00
38938;DHT22;24727;51.974;20.868;2023-04-06T10:25:55;2.60;1.00
38938;DHT22;24727;51.974;20.868;2023-04-06T10:28:21;3.10;1.00
38938;DHT22;24727;51.974;20.868;2023-04-06T10:30:48;3.00;1.00
38938;DHT22;24727;51.974;20.868;2023-04-06T10:33:15;2.20;1.00
38938;DHT22;24727;51.974;20.868;2023-04-06T10:35:44;1.90;1.00
38938;DHT22;24727;51.974;20.868;2023-04-06T10:38:11;1.90;1.00
38938;DHT22;24727;51.974;20.868;2023-04-06T10:40:42;1.80;1.00
38938;DHT22;24727;51.974;20.868;2023-04-06T10:43:20;1.60;1.00
38938;DHT22;24727;51.974;20.868;2023-04-06T10:45:57;1.50;15.40
38938;DHT22;24727;51.974;20.868;2023-04-06T10:48:43;1.40;27.10
38938;DHT22;24727;51.974;20.868;2023-04-06T10:51:15;1.30;38.90
38938;DHT22;24727;51.974;20.868;2023-04-06T10:53:44;1.30;47.90
38938;DHT22;24727;51.974;20.868;2023-04-06T10:56:14;1.30;60.50
38938;DHT22;24727;51.974;20.868;2023-04-06T10:58:49;1.30;62.90
38938;DHT22;24727;51.974;20.868;2023-04-06T11:01:19;1.30;60.40
38938;DHT22;24727;51.974;20.868;2023-04-06T11:03:51;1.20;55.50
38938;DHT22;24727;51.974;20.868;2023-04-06T11:06:26;1.20;62.90
38938;DHT22;24727;51.974;20.868;2023-04-06T11:08:55;1.30;68.90
38938;DHT22;24727;51.974;20.868;2023-04-06T11:11:25;1.30;73.20
38938;DHT22;24727;51.974;20.868;2023-04-06T11:13:57;1.40;75.80
38938;DHT22;24727;51.974;20.868;2023-04-06T11:21:43;1.30;81.80
38938;DHT22;24727;51.974;20.868;2023-04-06T11:24:11;1.40;84.70
38938;DHT22;24727;51.974;20.868;2023-04-06T11:29:19;1.40;86.10
38938;DHT22;24727;51.974;20.868;2023-04-06T11:31:48;1.50;85.40
38938;DHT22;24727;51.974;20.868;2023-04-06T11:34:22;1.60;84.50
38938;DHT22;24727;51.974;20.868;2023-04-06T11:37:01;1.50;81.80
38938;DHT22;24727;51.974;20.868;2023-04-06T11:39:29;1.60;82.00
38938;DHT22;24727;51.974;20.868;2023-04-06T11:42:00;1.60;80.60
38938;DHT22;24727;51.974;20.868;2023-04-06T11:47:05;1.50;71.50
38938;DHT22;24727;51.974;20.868;2023-04-06T11:49:33;1.50;72.20
38938;DHT22;24727;51.974;20.868;2023-04-06T11:52:00;1.60;72.20
38938;DHT22;24727;51.974;20.868;2023-04-06T11:54:31;1.60;74.80
38938;DHT22;24727;51.974;20.868;2023-04-06T11:56:58;1.60;72.80
38938;DHT22;24727;51.974;20.868;2023-04-06T11:59:24;1.60;71.30
38938;DHT22;24727;51.974;20.868;2023-04-06T12:01:51;1.60;71.10
38938;DHT22;24727;51.974;20.868;2023-04-06T12:04:19;1.60;72.40
38938;DHT22;24727;51.974;20.868;2023-04-06T12:06:46;1.60;71.70
38938;DHT22;24727;51.974;20.868;2023-04-06T12:09:13;1.80;69.60
38938;DHT22;24727;51.974;20.868;2023-04-06T12:11:39;1.80;70.60
38938;DHT22;24727;51.974;20.868;2023-04-06T12:14:06;1.70;69.20
38938;DHT22;24727;51.974;20.868;2023-04-06T12:16:34;1.90;72.00
38938;DHT22;24727;51.974;20.868;2023-04-06T12:19:02;1.90;67.70
38938;DHT22;24727;51.974;20.868;2023-04-06T12:21:30;1.80;63.80
38938;DHT22;24727;51.974;20.868;2023-04-06T12:24:05;1.80;65.70
38938;DHT22;24727;51.974;20.868;2023-04-06T12:26:31;1.80;62.50
38938;DHT22;24727;51.974;20.868;2023-04-06T12:29:01;1.90;57.90
38938;DHT22;24727;51.974;20.868;2023-04-06T12:31:34;2.00;61.60
38938;DHT22;24727;51.974;20.868;2023-04-06T12:34:03;2.00;53.20
38938;DHT22;24727;51.974;20.868;2023-04-06T12:36:30;2.00;55.70
38938;DHT22;24727;51.974;20.868;2023-04-06T12:38:57;2.20;57.70
38938;DHT22;24727;51.974;20.868;2023-04-06T12:41:24;2.30;38.40
38938;DHT22;24727;51.974;20.868;2023-04-06T12:43:50;2.40;18.70
38938;DHT22;24727;51.974;20.868;2023-04-06T12:46:17;2.10;7.90
38938;DHT22;24727;51.974;20.868;2023-04-06T12:48:43;2.10;10.20
38938;DHT22;24727;51.974;20.868;2023-04-06T12:51:10;2.10;8.50
38938;DHT22;24727;51.974;20.868;2023-04-06T12:53:36;2.00;6.90
38938;DHT22;24727;51.974;20.868;2023-04-06T12:56:13;2.10;12.00
38938;DHT22;24727;51.974;20.868;2023-04-06T12:58:40;2.10;9.10
38938;DHT22;24727;51.974;20.868;2023-04-06T13:01:08;2.10;13.80
38938;DHT22;24727;51.974;20.868;2023-04-06T13:03:35;2.10;23.50
38938;DHT22;24727;51.974;20.868;2023-04-06T13:06:02;2.20;28.90
38938;DHT22;24727;51.974;20.868;2023-04-06T13:08:28;2.40;16.10
38938;DHT22;24727;51.974;20.868;2023-04-06T13:10:55;2.30;13.00
38938;DHT22;24727;51.974;20.868;2023-04-06T13:13:25;2.20;15.90
38938;DHT22;24727;51.974;20.868;2023-04-06T13:15:54;2.10;34.40
38938;DHT22;24727;51.974;20.868;2023-04-06T13:18:22;2.10;36.30
38938;DHT22;24727;51.974;20.868;2023-04-06T13:20:49;2.10;51.40
38938;DHT22;24727;51.974;20.868;2023-04-06T13:23:15;2.10;56.10
38938;DHT22;24727;51.974;20.868;2023-04-06T13:25:44;2.10;57.60
38938;DHT22;24727;51.974;20.868;2023-04-06T13:28:10;2.10;58.00
38938;DHT22;24727;51.974;20.868;2023-04-06T13:30:37;2.20;60.20
38938;DHT22;24727;51.974;20.868;2023-04-06T13:33:03;2.10;59.70
38938;DHT22;24727;51.974;20.868;2023-04-06T13:35:32;2.10;62.00
38938;DHT22;24727;51.974;20.868;2023-04-06T13:37:59;2.40;70.30
38938;DHT22;24727;51.974;20.868;2023-04-06T13:40:26;2.30;61.00
38938;DHT22;24727;51.974;20.868;2023-04-06T13:42:52;2.30;66.20
38938;DHT22;24727;51.974;20.868;2023-04-06T13:45:19;2.30;71.20
38938;DHT22;24727;51.974;20.868;2023-04-06T13:47:46;2.30;74.20
38938;DHT22;24727;51.974;20.868;2023-04-06T13:50:12;2.30;75.20
38938;DHT22;24727;51.974;20.868;2023-04-06T13:52:39;2.30;77.10
38938;DHT22;24727;51.974;20.868;2023-04-06T13:55:06;2.30;78.80
38938;DHT22;24727;51.974;20.868;2023-04-06T13:57:34;2.30;79.30
38938;DHT22;24727;51.974;20.868;2023-04-06T14:00:02;2.40;79.50
38938;DHT22;24727;51.974;20.868;2023-04-06T14:02:28;2.40;80.40
38938;DHT22;24727;51.974;20.868;2023-04-06T14:04:54;2.50;81.20
38938;DHT22;24727;51.974;20.868;2023-04-06T14:07:21;2.60;75.90
38938;DHT22;24727;51.974;20.868;2023-04-06T14:09:48;2.50;74.00
38938;DHT22;24727;51.974;20.868;2023-04-06T14:12:14;2.50;74.00
38938;DHT22;24727;51.974;20.868;2023-04-06T14:14:40;2.50;73.70
38938;DHT22;24727;51.974;20.868;2023-04-06T14:17:07;2.50;72.30
38938;DHT22;24727;51.974;20.868;2023-04-06T14:19:34;2.50;74.40
38938;DHT22;24727;51.974;20.868;2023-04-06T14:22:03;2.40;75.00
38938;DHT22;24727;51.974;20.868;2023-04-06T14:24:30;2.40;78.60
38938;DHT22;24727;51.974;20.868;2023-04-06T14:27:03;2.30;80.10
38938;DHT22;24727;51.974;20.868;2023-04-06T14:29:30;2.30;81.60
38938;DHT22;24727;51.974;20.868;2023-04-06T14:31:57;2.40;78.60
38938;DHT22;24727;51.974;20.868;2023-04-06T14:34:28;2.40;78.10
38938;DHT22;24727;51.974;20.868;2023-04-06T14:36:56;2.40;79.40
38938;DHT22;24727;51.974;20.868;2023-04-06T14:39:22;2.60;73.40
38938;DHT22;24727;51.974;20.868;2023-04-06T14:41:49;2.40;72.80
38938;DHT22;24727;51.974;20.868;2023-04-06T14:44:15;2.40;75.10
38938;DHT22;24727;51.974;20.868;2023-04-06T14:46:42;2.30;76.70
38938;DHT22;24727;51.974;20.868;2023-04-06T14:49:08;2.40;78.10
38938;DHT22;24727;51.974;20.868;2023-04-06T14:51:36;2.40;79.00
38938;DHT22;24727;51.974;20.868;2023-04-06T14:54:04;2.40;81.20
38938;DHT22;24727;51.974;20.868;2023-04-06T14:56:31;2.60;79.60
38938;DHT22;24727;51.974;20.868;2023-04-06T14:58:58;2.50;77.30
38938;DHT22;24727;51.974;20.868;2023-04-06T15:01:27;2.60;78.80
38938;DHT22;24727;51.974;20.868;2023-04-06T15:03:53;2.50;77.00
38938;DHT22;24727;51.974;20.868;2023-04-06T15:06:19;2.40;78.60
38938;DHT22;24727;51.974;20.868;2023-04-06T15:08:47;2.30;80.60
38938;DHT22;24727;51.974;20.868;2023-04-06T15:11:14;2.40;82.90
38938;DHT22;24727;51.974;20.868;2023-04-06T15:13:41;2.40;85.30
38938;DHT22;24727;51.974;20.868;2023-04-06T15:16:08;2.50;84.20
38938;DHT22;24727;51.974;20.868;2023-04-06T15:18:35;2.40;83.10
38938;DHT22;24727;51.974;20.868;2023-04-06T15:21:02;2.40;83.20
38938;DHT22;24727;51.974;20.868;2023-04-06T15:23:29;2.40;84.10
38938;DHT22;24727;51.974;20.868;2023-04-06T15:25:57;2.40;84.70
38938;DHT22;24727;51.974;20.868;2023-04-06T15:28:23;2.60;83.00
38938;DHT22;24727;51.974;20.868;2023-04-06T15:30:50;2.70;79.20
38938;DHT22;24727;51.974;20.868;2023-04-06T15:33:17;2.70;75.10
38938;DHT22;24727;51.974;20.868;2023-04-06T15:35:46;2.70;72.90
38938;DHT22;24727;51.974;20.868;2023-04-06T15:38:14;2.60;72.10
38938;DHT22;24727;51.974;20.868;2023-04-06T15:40:46;2.50;74.50
38938;DHT22;24727;51.974;20.868;2023-04-06T15:43:13;2.50;77.70
38938;DHT22;24727;51.974;20.868;2023-04-06T15:45:40;2.40;77.90
38938;DHT22;24727;51.974;20.868;2023-04-06T15:48:07;2.40;80.10
38938;DHT22;24727;51.974;20.868;2023-04-06T15:50:35;2.60;81.30
38938;DHT22;24727;51.974;20.868;2023-04-06T15:53:01;2.50;77.80
38938;DHT22;24727;51.974;20.868;2023-04-06T15:55:28;2.40;78.80
38938;DHT22;24727;51.974;20.868;2023-04-06T15:57:54;2.40;80.00
38938;DHT22;24727;51.974;20.868;2023-04-06T16:00:23;2.30;80.90
38938;DHT22;24727;51.974;20.868;2023-04-06T16:02:50;2.40;81.90